Time;durP1;ratioP1;P1;durP2;ratioP2;P2;SDS_P1;SDS_P2;PMS_P1;PMS_P2;Temp;Humidity;BMP_temperature;BMP_pressure;BME280_temperature;BME280_humidity;BME280_pressure;Samples;Min_cycle;Max_cycle;Signal;HPM_P1;HPM_P2
2023/04/07 00:00:53;;;;;;;34.80;17.80;;;;;;;0.55;84.23;98567.14;436315;1261;111635;-40
2023/04/07 00:11:01;;;;;;;24.30;15.90;;;;;;;0.53;84.49;98556.28;436467;1248;107616;-41
2023/04/07 00:21:08;;;;;;;23.20;15.60;;;;;;;0.53;84.56;98541.48;436265;1248;99275;-41
2023/04/07 00:31:15;;;;;;;23.60;16.20;;;;;;;0.52;84.60;98540.71;436315;1254;108442;-41
2023/04/07 00:41:21;;;;;;;26.30;15.60;;;;;;;0.55;84.58;98543.48;436351;1254;99233;-42
2023/04/07 00:51:30;;;;;;;23.20;16.10;;;;;;;0.57;84.64;98538.73;436373;1248;111333;-40
2023/04/07 01:11:55;;;;;;;24.80;16.40;;;;;;;0.56;84.67;98521.92;436266;1251;99254;-39
2023/04/07 01:22:04;;;;;;;28.30;17.50;;;;;;;0.47;84.81;98514.92;437115;1248;107179;-41
2023/04/07 01:32:14;;;;;;;28.20;16.80;;;;;;;0.41;84.86;98515.95;436472;1261;98803;-40
2023/04/07 01:42:22;;;;;;;28.30;17.30;;;;;;;0.42;85.07;98512.38;436291;1253;110705;-41
2023/04/07 01:52:29;;;;;;;25.10;17.40;;;;;;;0.46;85.09;98506.20;436368;1261;107880;-42
2023/04/07 02:02:41;;;;;;;26.10;14.90;;;;;;;0.50;85.34;98503.97;436555;1247;99218;-40
2023/04/07 02:12:49;;;;;;;23.20;14.20;;;;;;;0.53;85.30;98506.14;436475;1251;107491;-41
2023/04/07 02:22:57;;;;;;;21.70;13.60;;;;;;;0.55;85.36;98499.16;436569;1247;99253;-39
2023/04/07 02:33:04;;;;;;;20.20;13.70;;;;;;;0.53;85.65;98502.34;436469;1247;111614;-41
2023/04/07 02:43:11;;;;;;;20.20;14.20;;;;;;;0.56;85.69;98500.95;436406;1248;108430;-40
2023/04/07 02:53:18;;;;;;;22.90;14.80;;;;;;;0.57;85.63;98498.50;436369;1251;99224;-41
2023/04/07 03:03:25;;;;;;;18.50;11.00;;;;;;;0.54;85.82;98483.42;436324;1261;107913;-41
2023/04/07 03:13:33;;;;;;;22.00;12.90;;;;;;;0.54;86.00;98475.08;436332;1251;99250;-41
2023/04/07 03:23:40;;;;;;;17.60;11.90;;;;;;;0.57;86.10;98484.13;436458;1261;111590;-40
2023/04/07 03:33:49;;;;;;;28.20;14.90;;;;;;;0.56;86.20;98474.77;436411;1247;108715;-39
2023/04/07 03:43:55;;;;;;;26.10;15.90;;;;;;;0.49;86.35;98483.03;436318;1251;381409;-40
2023/04/07 03:54:03;;;;;;;20.00;13.40;;;;;;;0.45;86.27;98475.25;436423;1251;113035;-40
2023/04/07 04:04:10;;;;;;;20.30;12.70;;;;;;;0.46;86.60;98465.23;436435;1247;107986;-41
2023/04/07 04:14:18;;;;;;;23.10;13.80;;;;;;;0.50;86.91;98464.10;436415;1247;99263;-40
2023/04/07 04:24:25;;;;;;;18.60;12.40;;;;;;;0.53;86.93;98476.15;436409;1248;107370;-39
2023/04/07 04:34:32;;;;;;;24.00;13.90;;;;;;;0.59;86.72;98492.29;436466;1248;99263;-41
2023/04/07 04:44:40;;;;;;;19.60;12.60;;;;;;;0.60;86.90;98486.42;436504;1251;111791;-40
2023/04/07 04:54:47;;;;;;;22.30;14.00;;;;;;;0.63;87.16;98477.07;436472;1252;106885;-41
2023/04/07 05:04:54;;;;;;;18.50;12.80;;;;;;;0.68;87.16;98480.29;436292;1247;99100;-40
2023/04/07 05:15:01;;;;;;;22.90;13.00;;;;;;;0.71;87.32;98479.84;436577;1247;107850;-40
2023/04/07 05:25:10;;;;;;;21.90;14.00;;;;;;;0.76;87.28;98481.18;436604;1247;99230;-40
2023/04/07 05:35:16;;;;;;;22.90;13.50;;;;;;;0.85;87.38;98476.66;436388;1247;111685;-40
2023/04/07 05:45:24;;;;;;;29.30;17.60;;;;;;;0.89;87.53;98483.05;436543;1251;107828;-40
2023/04/07 05:55:31;;;;;;;25.50;15.50;;;;;;;0.84;87.72;98481.84;436508;1251;99239;-41
2023/04/07 06:15:45;;;;;;;22.20;15.20;;;;;;;1.04;87.66;98479.39;436429;1247;109138;-41
2023/04/07 06:25:53;;;;;;;29.80;20.00;;;;;;;1.20;87.72;98482.52;436468;1247;99237;-41
2023/04/07 06:36:00;;;;;;;37.20;18.70;;;;;;;1.31;87.64;98479.66;436492;1251;107802;-40
2023/04/07 06:46:07;;;;;;;22.40;14.30;;;;;;;1.33;87.75;98478.44;436302;1251;99215;-42
2023/04/07 06:56:13;;;;;;;25.60;16.10;;;;;;;1.36;87.80;98475.77;436335;1247;111922;-42
2023/04/07 07:06:21;;;;;;;24.10;15.30;;;;;;;1.40;87.72;98474.79;436381;1253;108099;-40
2023/04/07 07:16:27;;;;;;;26.80;16.80;;;;;;;1.43;87.67;98476.94;436558;1247;99304;-39
2023/04/07 07:26:35;;;;;;;22.70;13.40;;;;;;;1.49;87.76;98479.33;436293;1251;107867;-41
2023/04/07 07:36:43;;;;;;;43.10;21.20;;;;;;;1.59;87.95;98474.70;436321;1247;99247;-41
2023/04/07 07:46:49;;;;;;;31.40;19.10;;;;;;;1.67;88.06;98478.30;436414;1251;113502;-41
2023/04/07 07:56:57;;;;;;;31.50;17.20;;;;;;;1.77;88.17;98485.96;436416;1251;106931;-40
2023/04/07 08:07:05;;;;;;;25.10;14.70;;;;;;;1.81;88.31;98490.25;436231;1247;99235;-40
2023/04/07 08:17:12;;;;;;;23.50;15.20;;;;;;;1.82;88.48;98499.14;436451;1251;112094;-41
2023/04/07 08:37:25;;;;;;;27.10;15.70;;;;;;;2.05;88.28;98493.70;436454;1247;99208;-41
2023/04/07 08:47:30;;;;;;;25.40;17.00;;;;;;;2.18;88.42;98495.88;436416;1251;108076;-41
2023/04/07 08:57:39;;;;;;;35.50;19.00;;;;;;;2.27;88.56;98495.95;436540;1251;99208;-40
2023/04/07 09:07:46;;;;;;;41.00;22.20;;;;;;;2.29;88.60;98498.47;436400;1251;110835;-40
2023/04/07 09:17:53;;;;;;;40.50;21.60;;;;;;;2.30;88.48;98492.27;436402;1251;107628;-40
2023/04/07 09:28:03;;;;;;;23.80;15.30;;;;;;;2.39;88.75;98487.73;436382;1251;99209;-42
2023/04/07 09:38:12;;;;;;;35.20;18.40;;;;;;;2.45;88.68;98478.89;436507;1251;110520;-40
2023/04/07 09:48:22;;;;;;;32.60;18.80;;;;;;;2.48;88.89;98475.27;436442;1247;107309;-39
2023/04/07 09:58:30;;;;;;;36.40;22.50;;;;;;;2.53;88.98;98468.75;436341;1253;99211;-43
2023/04/07 10:08:38;;;;;;;44.10;22.20;;;;;;;2.67;89.27;98466.00;436527;1253;107868;-41
2023/04/07 10:30:41;;;;;;;35.30;20.00;;;;;;;2.81;89.32;98453.17;436438;1247;112580;-40
2023/04/07 10:40:48;;;;;;;34.50;22.10;;;;;;;2.84;89.54;98471.30;436410;1247;108712;-41
2023/04/07 10:51:16;;;;;;;36.90;23.80;;;;;;;2.90;89.74;98470.73;436374;1253;99238;-41
2023/04/07 11:01:23;;;;;;;30.50;18.40;;;;;;;2.98;90.04;98466.25;436481;1251;108104;-40
2023/04/07 11:11:41;;;;;;;33.70;19.80;;;;;;;3.12;90.17;98464.55;436379;1248;98874;-41
2023/04/07 11:21:48;;;;;;;34.10;19.60;;;;;;;3.18;90.43;98457.54;436432;1247;109782;-40
2023/04/07 11:31:58;;;;;;;30.10;17.00;;;;;;;3.33;90.62;98447.74;436371;1253;106920;-42
2023/04/07 11:42:05;;;;;;;31.60;18.20;;;;;;;3.49;90.68;98443.48;436543;1247;97912;-41
2023/04/07 11:52:12;;;;;;;26.10;16.80;;;;;;;3.50;90.71;98457.13;436285;1253;108083;-40
2023/04/07 12:02:32;;;;;;;24.30;16.00;;;;;;;3.46;90.54;98468.20;436452;1247;99208;-41
2023/04/07 12:12:45;;;;;;;24.80;15.20;;;;;;;3.50;90.61;98464.61;436409;1253;111283;-41
2023/04/07 12:22:52;;;;;;;28.50;15.80;;;;;;;3.50;90.91;98452.54;436463;1253;106720;-41
2023/04/07 12:33:02;;;;;;;25.60;15.00;;;;;;;3.55;91.04;98459.51;436488;1251;99238;-41
2023/04/07 12:43:09;;;;;;;22.80;14.00;;;;;;;3.61;91.15;98462.75;436274;1253;108043;-41
2023/04/07 12:53:16;;;;;;;26.90;15.20;;;;;;;3.67;91.27;98466.77;436224;1248;98811;-40
2023/04/07 13:03:23;;;;;;;28.10;16.20;;;;;;;3.81;91.18;98465.63;436326;1253;112459;-40
2023/04/07 13:13:33;;;;;;;28.30;16.30;;;;;;;3.87;91.12;98465.80;436283;1247;107517;-42
2023/04/07 13:23:40;;;;;;;23.50;14.80;;;;;;;3.86;91.18;98470.77;436492;1247;99247;-41
2023/04/07 13:33:50;;;;;;;21.30;13.10;;;;;;;3.88;91.43;98474.17;436248;1253;107928;-41
2023/04/07 13:54:04;;;;;;;22.30;14.50;;;;;;;3.98;91.42;98470.85;436247;1247;111579;-41
2023/04/07 14:04:12;;;;;;;19.30;14.20;;;;;;;4.05;91.33;98465.80;436261;1253;108232;-40
2023/04/07 14:14:19;;;;;;;20.30;14.10;;;;;;;4.13;91.30;98468.63;436488;1253;99250;-41
2023/04/07 14:24:26;;;;;;;21.80;14.70;;;;;;;4.18;91.35;98463.21;436303;1253;108116;-40
2023/04/07 14:34:33;;;;;;;18.20;13.10;;;;;;;4.23;91.48;98461.88;436370;1252;99301;-41
2023/04/07 14:44:41;;;;;;;26.10;17.50;;;;;;;4.33;91.42;98467.37;436295;1261;111075;-41
2023/04/07 14:54:49;;;;;;;21.50;15.30;;;;;;;4.38;91.27;98467.27;436406;1247;107406;-40
2023/04/07 15:04:56;;;;;;;30.50;20.60;;;;;;;4.40;91.34;98462.21;436288;1261;99731;-41
2023/04/07 15:15:03;;;;;;;22.10;14.10;;;;;;;4.45;91.11;98460.89;436409;1252;110753;-41
2023/04/07 15:25:11;;;;;;;31.50;17.70;;;;;;;4.43;91.13;98471.60;436544;1247;99211;-40
2023/04/07 15:35:16;;;;;;;19.90;12.30;;;;;;;4.41;91.10;98472.05;436351;1247;111796;-42
2023/04/07 15:45:23;;;;;;;29.20;17.80;;;;;;;4.40;91.13;98471.59;435614;1254;601713;-41
2023/04/07 15:55:31;;;;;;;23.30;15.60;;;;;;;4.41;91.10;98470.63;436264;1253;98582;-42
2023/04/07 16:05:38;;;;;;;19.30;13.40;;;;;;;4.42;91.10;98475.59;436399;1252;108577;-40
2023/04/07 16:15:46;;;;;;;27.60;17.60;;;;;;;4.40;91.07;98482.70;436418;1250;99961;-41
2023/04/07 16:25:54;;;;;;;15.70;11.70;;;;;;;4.36;91.08;98485.23;436442;1253;111942;-40
2023/04/07 16:36:01;;;;;;;27.70;17.80;;;;;;;4.33;91.13;98491.21;436304;1248;108789;-41
2023/04/07 16:46:09;;;;;;;31.70;19.80;;;;;;;4.34;91.11;98493.27;436418;1253;99217;-40
2023/04/07 17:06:22;;;;;;;30.60;19.10;;;;;;;4.47;91.48;98522.10;436274;1253;99253;-41
2023/04/07 17:16:30;;;;;;;42.20;26.00;;;;;;;4.37;91.01;98534.00;436400;1254;111915;-41
2023/04/07 17:26:37;;;;;;;42.90;24.80;;;;;;;4.29;91.52;98548.58;436295;1253;107484;-41
2023/04/07 17:36:45;;;;;;;34.30;22.70;;;;;;;4.30;91.33;98557.92;436327;1261;101495;-41
2023/04/07 17:46:52;;;;;;;46.20;26.60;;;;;;;4.29;90.97;98558.20;436468;1253;108476;-40
2023/04/07 18:07:08;;;;;;;60.90;34.90;;;;;;;4.41;91.32;98578.85;436278;1253;112798;-42
2023/04/07 18:17:15;;;;;;;51.70;32.80;;;;;;;4.48;91.32;98582.33;436261;1261;106672;-40
2023/04/07 18:27:23;;;;;;;39.60;24.40;;;;;;;4.51;91.16;98597.55;436378;1253;99253;-41
2023/04/07 18:37:31;;;;;;;51.30;26.90;;;;;;;4.58;91.37;98607.73;436390;1253;107109;-41
2023/04/07 18:47:37;;;;;;;65.30;29.90;;;;;;;4.55;91.43;98618.31;436303;1252;99200;-39
2023/04/07 18:57:45;;;;;;;65.60;29.00;;;;;;;4.44;91.39;98620.39;436412;1261;110266;-39
2023/04/07 19:07:52;;;;;;;42.30;22.50;;;;;;;4.38;91.21;98624.95;436162;1253;106814;-42
2023/04/07 19:18:01;;;;;;;41.90;23.20;;;;;;;4.37;91.23;98632.59;436448;1253;98588;-41
2023/04/07 19:28:08;;;;;;;37.30;20.30;;;;;;;4.42;91.24;98637.90;436311;1254;112201;-41
2023/04/07 19:38:15;;;;;;;41.70;21.80;;;;;;;4.53;91.46;98648.52;436201;1248;107455;-41
2023/04/07 19:48:22;;;;;;;37.90;20.30;;;;;;;4.58;91.34;98655.40;436271;1261;99321;-41
2023/04/07 19:58:29;;;;;;;52.50;28.80;;;;;;;4.64;91.24;98659.94;436404;1253;108251;-41
2023/04/07 20:08:36;;;;;;;37.90;23.40;;;;;;;4.66;91.66;98665.15;436348;1262;99217;-40
2023/04/07 20:18:43;;;;;;;42.00;22.20;;;;;;;4.66;92.09;98669.10;436373;1247;110422;-40
2023/04/07 20:28:50;;;;;;;41.10;22.60;;;;;;;4.53;92.51;98684.23;436260;1251;109266;-40
2023/04/07 20:38:58;;;;;;;28.10;16.50;;;;;;;4.27;93.18;98700.12;436474;1254;98807;-39
2023/04/07 20:59:12;;;;;;;26.60;16.80;;;;;;;3.70;93.26;98716.79;436287;1248;99240;-40
2023/04/07 21:09:19;;;;;;;19.40;13.40;;;;;;;3.50;93.10;98728.48;436242;1248;112419;-40
2023/04/07 21:19:25;;;;;;;20.50;13.10;;;;;;;3.35;93.13;98742.39;436255;1254;108823;-41
2023/04/07 21:29:32;;;;;;;24.80;13.50;;;;;;;3.28;93.05;98745.52;436480;1248;99192;-41
2023/04/07 21:39:39;;;;;;;23.20;14.80;;;;;;;3.21;93.14;98753.54;436208;1248;108347;-40
2023/04/07 21:49:46;;;;;;;20.20;13.10;;;;;;;3.16;92.95;98751.35;436369;1248;99307;-40
2023/04/07 21:59:53;;;;;;;20.10;13.00;;;;;;;3.13;92.89;98753.89;436338;1248;113149;-40
2023/04/07 22:10:01;;;;;;;38.00;19.30;;;;;;;3.10;92.94;98753.97;436353;1247;108177;-38
2023/04/07 22:20:10;;;;;;;33.20;17.80;;;;;;;3.08;92.72;98758.86;436430;1248;98820;-41
2023/04/07 22:30:17;;;;;;;18.60;12.00;;;;;;;3.09;92.68;98757.56;436116;1254;107747;-41
2023/04/07 22:40:24;;;;;;;35.10;16.80;;;;;;;3.03;92.53;98767.04;436269;1253;99221;-40
2023/04/07 22:50:30;;;;;;;23.30;14.80;;;;;;;2.96;92.36;98774.73;436416;1247;113186;-41
2023/04/07 23:00:38;;;;;;;24.60;14.30;;;;;;;2.95;92.19;98782.70;436260;1248;108288;-39
2023/04/07 23:10:45;;;;;;;19.20;12.30;;;;;;;2.94;92.10;98789.92;435934;1247;99227;-41
2023/04/07 23:20:52;;;;;;;38.20;18.00;;;;;;;2.91;92.03;98806.92;435985;1252;108041;-41
2023/04/07 23:31:00;;;;;;;20.80;13.00;;;;;;;2.83;91.86;98815.54;435888;1247;99243;-40
2023/04/07 23:41:07;;;;;;;20.60;13.30;;;;;;;2.80;91.75;98813.67;435904;1247;111443;-40
2023/04/07 23:51:14;;;;;;;25.50;15.70;;;;;;;2.82;91.65;98820.60;435919;1248;106981;-41
